Time;durP1;ratioP1;P1;durP2;ratioP2;P2;SDS_P1;SDS_P2;PMS_P1;PMS_P2;Temp;Humidity;BMP_temperature;BMP_pressure;BME280_temperature;BME280_humidity;BME280_pressure;Samples;Min_cycle;Max_cycle;Signal;HPM_P1;HPM_P2
2023/06/27 00:00:10;;;;;;;6.87;6.20;;;;;;;20.59;97.06;94783.13;5075740;28;20478;-78
2023/06/27 00:02:38;;;;;;;7.63;6.50;;;;;;;20.62;96.95;94783.56;5075065;28;20957;-78
2023/06/27 00:05:05;;;;;;;10.37;5.73;;;;;;;20.62;97.36;94780.09;5075268;28;20445;-79
2023/06/27 00:07:32;;;;;;;6.87;6.27;;;;;;;20.59;97.32;94788.47;5075575;28;20447;-78
2023/06/27 00:09:59;;;;;;;7.37;6.67;;;;;;;20.56;97.82;94778.19;5075493;28;20473;-78
2023/06/27 00:12:30;;;;;;;6.97;6.27;;;;;;;20.52;97.63;94782.25;5075647;28;20875;-78
2023/06/27 00:14:57;;;;;;;7.70;6.60;;;;;;;20.50;97.24;94784.28;5040726;28;20514;-78
2023/06/27 00:17:24;;;;;;;7.30;6.60;;;;;;;20.49;97.04;94783.47;5074864;28;20894;-78
2023/06/27 00:19:57;;;;;;;6.87;6.03;;;;;;;20.50;97.49;94784.28;5074949;28;20482;-79
2023/06/27 00:22:24;;;;;;;8.93;6.10;;;;;;;20.44;98.02;94775.22;5075030;28;21018;-78
2023/06/27 00:24:52;;;;;;;7.70;7.00;;;;;;;20.41;98.66;94775.59;5074885;28;20479;-78
2023/06/27 00:27:18;;;;;;;7.57;6.10;;;;;;;20.40;98.41;94774.78;5074925;28;20900;-78
2023/06/27 00:29:47;;;;;;;8.50;6.50;;;;;;;20.39;98.15;94777.63;5074935;28;20929;-77
2023/06/27 00:32:14;;;;;;;6.90;5.63;;;;;;;20.33;97.57;94773.88;5074787;28;20980;-78
2023/06/27 00:34:41;;;;;;;6.23;5.53;;;;;;;20.30;97.85;94779.59;5075124;28;20488;-78
2023/06/27 00:37:07;;;;;;;7.30;6.10;;;;;;;20.18;97.28;94782.97;5074711;28;20441;-78
2023/06/27 00:39:34;;;;;;;7.87;6.70;;;;;;;20.14;97.43;94787.03;5074792;28;20460;-78
2023/06/27 00:42:02;;;;;;;7.27;6.20;;;;;;;20.12;97.76;94776.56;5039383;28;20441;-78
2023/06/27 00:44:29;;;;;;;9.33;7.20;;;;;;;20.12;98.15;94776.56;5074655;28;20445;-78
2023/06/27 00:46:58;;;;;;;6.90;5.30;;;;;;;20.14;97.54;94777.19;5074484;28;20928;-78
2023/06/27 00:49:25;;;;;;;6.80;6.10;;;;;;;20.13;97.16;94774.72;5073592;28;20446;-78
2023/06/27 00:51:54;;;;;;;9.03;6.40;;;;;;;20.11;97.54;94773.06;5074398;28;20446;-78
2023/06/27 00:54:22;;;;;;;9.97;5.70;;;;;;;20.05;97.50;94771.19;5074445;28;20484;-78
2023/06/27 00:56:52;;;;;;;6.60;5.90;;;;;;;20.01;97.81;94764.59;5074394;28;20450;-77
2023/06/27 00:59:19;;;;;;;9.43;6.27;;;;;;;19.96;97.61;94761.69;5074859;28;20455;-78
2023/06/27 01:01:46;;;;;;;7.00;6.30;;;;;;;19.96;97.60;94756.34;5074527;28;20448;-78
2023/06/27 01:04:14;;;;;;;6.60;5.90;;;;;;;19.96;97.29;94769.66;5074610;28;20465;-78
2023/06/27 01:06:49;;;;;;;8.23;5.90;;;;;;;19.96;96.94;94767.00;5074094;28;20484;-78
2023/06/27 01:09:27;;;;;;;6.60;5.97;;;;;;;19.98;97.33;94769.47;5073991;28;20476;-78
2023/06/27 01:12:01;;;;;;;10.60;6.10;;;;;;;20.01;96.85;94766.44;5073871;28;20532;-78
2023/06/27 01:14:31;;;;;;;6.63;5.90;;;;;;;20.00;96.69;94770.09;5074150;28;20572;-78
2023/06/27 01:16:58;;;;;;;6.17;5.57;;;;;;;19.96;96.45;94771.50;5074733;28;20448;-77
2023/06/27 01:19:30;;;;;;;8.97;5.63;;;;;;;19.95;96.47;94764.50;5074116;28;20519;-78
2023/06/27 01:22:02;;;;;;;6.37;5.70;;;;;;;19.99;96.36;94771.13;5073803;28;20485;-78
2023/06/27 01:24:31;;;;;;;7.63;6.67;;;;;;;19.99;96.38;94771.94;5073723;28;20445;-78
2023/06/27 01:26:58;;;;;;;7.37;6.00;;;;;;;19.96;95.99;94766.19;5073846;28;20446;-78
2023/06/27 01:29:29;;;;;;;7.17;6.47;;;;;;;19.91;96.54;94771.22;5074300;28;20468;-78
2023/06/27 01:32:04;;;;;;;7.33;6.70;;;;;;;19.89;96.27;94767.94;5073991;28;20440;-78
2023/06/27 01:34:34;;;;;;;8.13;6.60;;;;;;;19.85;96.87;94772.81;5073523;28;20503;-78
2023/06/27 01:37:06;;;;;;;10.60;7.03;;;;;;;19.83;97.55;94766.03;5073746;28;20469;-78
2023/06/27 01:39:40;;;;;;;9.25;7.53;;;;;;;19.82;97.20;94769.72;5037868;28;20462;-79
2023/06/27 01:42:15;;;;;;;8.10;7.07;;;;;;;19.78;97.19;94770.09;5073509;28;20201;-78
2023/06/27 01:44:46;;;;;;;6.60;5.93;;;;;;;19.73;97.60;94764.53;5073546;28;20449;-77
2023/06/27 01:47:13;;;;;;;7.10;6.40;;;;;;;19.73;97.17;94775.16;5073948;28;20440;-78
2023/06/27 01:49:40;;;;;;;7.03;6.23;;;;;;;19.75;97.48;94764.34;5073288;28;20447;-78
2023/06/27 01:52:09;;;;;;;7.70;5.40;;;;;;;19.73;96.54;94764.53;5073387;28;20831;-78
2023/06/27 01:54:38;;;;;;;10.73;6.83;;;;;;;19.71;96.70;94768.38;5073645;28;20817;-78
2023/06/27 01:57:05;;;;;;;10.87;6.97;;;;;;;19.66;97.04;94768.09;5073161;28;20537;-78
2023/06/27 01:59:32;;;;;;;9.97;6.93;;;;;;;19.64;96.17;94764.81;5073418;28;20450;-78
2023/06/27 02:01:58;;;;;;;6.77;6.17;;;;;;;19.64;96.00;94762.97;5072997;28;20449;-78
2023/06/27 02:04:25;;;;;;;8.20;6.63;;;;;;;19.61;96.31;94763.34;5073165;28;20505;-78
2023/06/27 02:06:52;;;;;;;6.07;5.30;;;;;;;19.63;96.46;94769.31;5073072;28;20445;-78
2023/06/27 02:09:19;;;;;;;6.67;5.97;;;;;;;19.65;96.51;94775.25;5073035;28;20512;-78
2023/06/27 02:11:47;;;;;;;5.90;5.40;;;;;;;19.59;96.62;94765.38;5072849;28;20939;-78
2023/06/27 02:14:14;;;;;;;6.87;5.80;;;;;;;19.59;96.18;94765.38;5037424;28;20421;-78
2023/06/27 02:16:41;;;;;;;7.70;5.80;;;;;;;19.56;96.41;94762.28;5072800;28;20450;-78
2023/06/27 02:19:07;;;;;;;7.33;6.63;;;;;;;19.51;96.68;94768.13;5072732;28;20468;-78
2023/06/27 02:21:34;;;;;;;12.43;6.50;;;;;;;19.52;97.04;94769.78;5072821;28;20445;-77
2023/06/27 02:24:01;;;;;;;7.40;6.70;;;;;;;19.56;96.70;94780.91;5072635;28;20526;-78
2023/06/27 02:26:28;;;;;;;8.13;6.00;;;;;;;19.57;96.28;94780.72;5072709;28;20453;-78
2023/06/27 02:28:56;;;;;;;8.00;7.20;;;;;;;19.53;95.73;94771.47;5072433;28;20444;-78
2023/06/27 02:31:22;;;;;;;9.13;7.00;;;;;;;19.48;95.98;94774.66;5072744;28;20827;-78
2023/06/27 02:33:49;;;;;;;7.00;6.00;;;;;;;19.45;96.48;94771.53;5072679;28;20444;-78
2023/06/27 02:36:16;;;;;;;7.13;6.50;;;;;;;19.48;96.43;94773.84;5072564;28;20521;-77
2023/06/27 02:38:43;;;;;;;9.63;6.73;;;;;;;19.46;95.45;94774.03;5072814;28;20444;-78
2023/06/27 02:41:10;;;;;;;13.43;6.23;;;;;;;19.44;95.55;94775.22;5072401;28;20449;-79
2023/06/27 02:43:37;;;;;;;9.13;5.70;;;;;;;19.40;95.84;94776.63;5072685;28;20445;-79
2023/06/27 02:46:05;;;;;;;7.93;6.10;;;;;;;19.33;95.78;94768.53;5072458;28;20465;-78
2023/06/27 02:48:32;;;;;;;7.07;6.00;;;;;;;19.33;96.09;94775.69;5072504;28;20445;-78
2023/06/27 02:50:59;;;;;;;8.57;6.70;;;;;;;19.34;95.47;94772.84;5072722;28;20436;-78
2023/06/27 02:53:26;;;;;;;8.53;6.10;;;;;;;19.35;96.35;94769.16;5072211;28;20448;-78
2023/06/27 02:55:53;;;;;;;7.80;7.10;;;;;;;19.38;96.23;94770.66;5072246;28;21209;-78
2023/06/27 02:58:20;;;;;;;6.67;5.77;;;;;;;19.38;95.59;94774.13;5073544;28;20453;-77
2023/06/27 03:00:47;;;;;;;5.83;5.17;;;;;;;19.36;94.33;94776.13;5021594;28;20463;-78
2023/06/27 03:03:15;;;;;;;7.07;5.80;;;;;;;19.28;94.32;94770.94;5079804;28;20550;-77
2023/06/27 03:05:42;;;;;;;6.30;5.57;;;;;;;19.21;94.89;94774.53;5093685;28;20479;-78
2023/06/27 03:08:08;;;;;;;6.90;5.70;;;;;;;19.14;95.92;94780.59;5058298;28;20440;-78
2023/06/27 03:10:35;;;;;;;6.00;5.40;;;;;;;19.15;96.29;94773.44;5093423;28;20452;-78
2023/06/27 03:13:02;;;;;;;7.27;5.90;;;;;;;19.11;95.68;94773.00;5092002;28;20450;-78
2023/06/27 03:15:29;;;;;;;7.63;6.93;;;;;;;19.16;95.11;94778.56;5092423;28;20483;-77
2023/06/27 03:17:55;;;;;;;7.33;6.30;;;;;;;19.22;94.95;94773.50;5091969;28;20479;-78
2023/06/27 03:20:23;;;;;;;8.33;5.90;;;;;;;19.26;96.21;94774.78;5092521;28;20447;-78
2023/06/27 03:22:50;;;;;;;7.17;5.73;;;;;;;19.31;95.71;94769.72;5091939;28;20444;-77
2023/06/27 03:25:17;;;;;;;7.10;6.10;;;;;;;19.35;95.39;94777.16;5073098;28;20475;-77
2023/06/27 03:27:44;;;;;;;7.90;6.40;;;;;;;19.43;94.14;94781.56;5092189;28;20445;-77
2023/06/27 03:30:11;;;;;;;7.77;5.43;;;;;;;19.55;94.11;94782.75;5091969;28;20466;-77
2023/06/27 03:32:38;;;;;;;7.60;5.77;;;;;;;19.68;92.66;94780.25;5092128;28;20447;-78
2023/06/27 03:35:06;;;;;;;8.00;5.73;;;;;;;20.27;96.74;94777.31;5039602;28;20476;-78
2023/06/27 03:37:35;;;;;;;10.70;6.30;;;;;;;21.01;91.86;94783.00;5091935;28;20446;-78
2023/06/27 03:40:02;;;;;;;6.50;5.90;;;;;;;21.78;88.24;94789.09;5091852;28;20450;-78
2023/06/27 03:42:29;;;;;;;7.03;5.80;;;;;;;22.43;84.22;94795.63;5091742;28;20454;-79
2023/06/27 03:44:56;;;;;;;7.53;6.10;;;;;;;22.76;79.91;94808.97;5091919;28;20809;-79
2023/06/27 03:47:24;;;;;;;6.40;5.37;;;;;;;22.93;81.18;94801.38;5091917;28;20747;-78
2023/06/27 03:49:51;;;;;;;6.67;5.97;;;;;;;23.02;78.05;94811.66;5091948;28;20443;-78
2023/06/27 03:52:18;;;;;;;12.77;6.83;;;;;;;22.85;77.86;94808.59;5091783;28;20933;-77
2023/06/27 03:54:46;;;;;;;8.70;7.77;;;;;;;22.86;78.33;94807.56;5091939;28;20453;-78
2023/06/27 03:57:13;;;;;;;13.30;7.30;;;;;;;22.81;78.79;94807.34;5072840;28;20502;-78
2023/06/27 03:59:40;;;;;;;11.53;8.30;;;;;;;22.68;79.03;94802.00;5091434;28;20453;-77
2023/06/27 04:02:07;;;;;;;10.03;7.13;;;;;;;22.60;80.48;94804.88;5091251;28;20453;-77
2023/06/27 04:04:34;;;;;;;10.47;8.07;;;;;;;22.52;80.72;94813.09;5040289;28;20448;-77
2023/06/27 04:07:01;;;;;;;12.60;7.60;;;;;;;22.47;81.17;94811.03;5092503;28;20503;-77
2023/06/27 04:09:27;;;;;;;8.57;7.77;;;;;;;22.45;82.72;94812.28;5057121;28;20499;-77
2023/06/27 04:11:58;;;;;;;8.37;7.03;;;;;;;22.42;83.53;94816.19;5056875;28;20797;-78
2023/06/27 04:14:25;;;;;;;10.80;7.80;;;;;;;22.40;83.57;94815.56;5073601;28;20469;-78
2023/06/27 04:16:52;;;;;;;10.30;7.77;;;;;;;22.40;83.41;94820.09;5092496;28;20556;-78
2023/06/27 04:19:19;;;;;;;8.90;7.17;;;;;;;22.40;84.04;94815.56;5092402;28;21002;-78
2023/06/27 04:21:46;;;;;;;13.83;8.33;;;;;;;22.45;84.22;94809.59;5092541;28;20449;-78
2023/06/27 04:24:12;;;;;;;10.50;7.00;;;;;;;22.58;83.78;94816.81;5094103;28;20469;-78
2023/06/27 04:26:42;;;;;;;11.17;8.57;;;;;;;22.78;83.07;94818.44;5095827;28;20441;-78
2023/06/27 04:29:11;;;;;;;10.33;9.20;;;;;;;22.98;82.88;94821.13;5090376;28;20781;-79
2023/06/27 04:31:37;;;;;;;8.90;7.80;;;;;;;23.26;81.98;94822.72;5073831;28;20478;-78
2023/06/27 04:34:04;;;;;;;16.97;8.60;;;;;;;23.48;80.67;94819.59;5074943;28;20436;-79
2023/06/27 04:36:31;;;;;;;13.07;8.90;;;;;;;23.75;79.35;94824.88;5074649;28;20483;-78
2023/06/27 04:38:58;;;;;;;13.63;9.07;;;;;;;23.49;80.18;94815.88;5074069;28;20451;-78
2023/06/27 04:41:28;;;;;;;10.30;9.17;;;;;;;23.66;80.39;94821.59;5074909;28;20451;-77
2023/06/27 04:43:57;;;;;;;8.00;7.20;;;;;;;23.97;80.17;94820.84;5074540;28;20448;-78
2023/06/27 04:46:27;;;;;;;15.80;8.70;;;;;;;24.22;78.67;94825.44;5074512;28;20452;-78
2023/06/27 04:48:56;;;;;;;11.47;8.90;;;;;;;24.44;77.64;94834.81;5022552;28;20435;-79
2023/06/27 04:51:23;;;;;;;12.80;8.07;;;;;;;24.74;77.15;94832.31;5074654;28;20498;-77
2023/06/27 04:53:50;;;;;;;19.43;8.67;;;;;;;25.05;75.15;94825.28;5074459;28;20452;-78
2023/06/27 04:56:17;;;;;;;10.50;9.50;;;;;;;25.40;74.41;94830.91;5074681;28;20484;-78
2023/06/27 04:58:44;;;;;;;11.47;9.80;;;;;;;25.33;72.76;94828.31;5075333;28;20959;-78
2023/06/27 05:01:11;;;;;;;13.83;9.60;;;;;;;25.22;73.46;94827.19;5091856;28;20495;-79
2023/06/27 05:03:41;;;;;;;15.10;9.20;;;;;;;25.43;73.11;94830.47;5082490;28;20928;-77
2023/06/27 05:06:08;;;;;;;12.97;10.20;;;;;;;25.42;73.14;94826.97;5093250;28;20447;-78
2023/06/27 05:08:37;;;;;;;9.60;8.67;;;;;;;25.19;72.56;94834.88;5081140;28;20509;-77
2023/06/27 05:11:04;;;;;;;12.63;8.67;;;;;;;24.84;74.09;94826.47;5082961;28;20445;-78
2023/06/27 05:13:31;;;;;;;11.23;8.27;;;;;;;24.38;76.46;94830.34;5078276;28;20452;-76
2023/06/27 05:15:58;;;;;;;13.17;10.10;;;;;;;24.13;78.06;94826.75;5086176;28;20507;-76
2023/06/27 05:18:26;;;;;;;12.00;10.80;;;;;;;23.80;79.94;94827.72;5088140;28;20977;-78
2023/06/27 05:20:55;;;;;;;11.87;9.57;;;;;;;23.57;81.36;94820.19;5085995;28;20455;-77
2023/06/27 05:23:23;;;;;;;11.93;10.60;;;;;;;23.66;81.40;94826.13;5089120;28;20490;-78
2023/06/27 05:25:51;;;;;;;12.53;9.70;;;;;;;23.67;82.22;94828.59;5084930;28;20534;-77
2023/06/27 05:28:18;;;;;;;12.30;9.10;;;;;;;23.82;82.29;94835.56;5089337;28;20439;-77
2023/06/27 05:30:44;;;;;;;14.40;9.10;;;;;;;24.22;80.17;94825.44;5085090;28;20448;-77
2023/06/27 05:33:11;;;;;;;10.30;9.20;;;;;;;24.69;78.25;94832.16;5074189;28;20447;-77
2023/06/27 05:35:38;;;;;;;12.80;8.73;;;;;;;25.18;74.88;94835.91;5087140;28;20537;-77
2023/06/27 05:38:06;;;;;;;13.63;9.30;;;;;;;25.57;73.92;94834.66;5093290;28;20463;-77
2023/06/27 05:40:33;;;;;;;13.13;8.97;;;;;;;26.06;71.90;94840.94;5095295;28;20509;-77
2023/06/27 05:43:00;;;;;;;9.60;8.10;;;;;;;26.50;69.86;94843.22;5093128;28;20463;-77
2023/06/27 05:45:27;;;;;;;11.70;9.53;;;;;;;27.02;70.01;94835.41;5094650;28;20444;-77
2023/06/27 05:47:54;;;;;;;9.50;7.77;;;;;;;27.33;65.10;94833.41;5084502;28;20995;-78
2023/06/27 05:50:21;;;;;;;9.70;8.40;;;;;;;27.45;63.91;94829.63;5093544;28;20448;-78
2023/06/27 05:52:48;;;;;;;16.07;8.33;;;;;;;27.60;63.91;94834.56;5094881;28;20778;-77
2023/06/27 05:55:16;;;;;;;10.03;7.83;;;;;;;27.80;64.65;94833.38;5078795;28;20445;-77
2023/06/27 05:57:43;;;;;;;9.00;7.40;;;;;;;27.32;65.68;94832.59;5074273;28;20456;-79
2023/06/27 06:00:13;;;;;;;11.03;7.73;;;;;;;27.51;63.57;94830.59;5022762;28;20437;-77
2023/06/27 06:02:43;;;;;;;12.43;7.93;;;;;;;27.62;62.55;94835.16;5074194;28;20498;-77
2023/06/27 06:05:10;;;;;;;13.10;8.33;;;;;;;28.02;61.23;94837.06;5074377;28;20448;-77
2023/06/27 06:07:41;;;;;;;12.83;7.33;;;;;;;28.30;60.13;94829.00;5073949;28;20532;-77
2023/06/27 06:10:08;;;;;;;9.63;7.87;;;;;;;28.68;60.96;94831.06;5074065;28;20541;-78
2023/06/27 06:12:37;;;;;;;11.53;7.77;;;;;;;28.98;60.92;94838.88;5039004;28;20455;-77
2023/06/27 06:15:04;;;;;;;11.40;7.47;;;;;;;28.86;57.73;94838.13;5074137;28;20843;-77
2023/06/27 06:17:31;;;;;;;7.60;6.60;;;;;;;29.08;59.15;94832.00;5073910;28;20488;-77
2023/06/27 06:19:57;;;;;;;10.27;7.70;;;;;;;29.16;57.91;94829.69;5022192;28;20449;-77
2023/06/27 06:22:24;;;;;;;11.27;8.67;;;;;;;29.36;57.11;94831.88;5038609;28;20449;-77
2023/06/27 06:24:51;;;;;;;10.10;7.07;;;;;;;29.57;56.05;94828.44;5038302;28;20751;-78
2023/06/27 06:27:18;;;;;;;7.67;6.63;;;;;;;29.85;55.67;94829.34;5073763;28;20538;-77
2023/06/27 06:29:46;;;;;;;11.23;7.40;;;;;;;29.95;54.11;94820.53;5073455;28;20506;-78
2023/06/27 06:32:13;;;;;;;8.53;7.30;;;;;;;30.11;53.85;94812.38;5038300;28;20447;-77
2023/06/27 06:34:40;;;;;;;8.37;7.47;;;;;;;30.23;52.41;94811.41;5073842;28;20445;-79
2023/06/27 06:37:07;;;;;;;8.00;7.20;;;;;;;30.16;52.01;94812.44;5073729;28;20563;-77
2023/06/27 06:39:34;;;;;;;16.63;8.20;;;;;;;29.82;54.12;94808.22;5073514;28;20448;-77
2023/06/27 06:42:00;;;;;;;12.20;8.00;;;;;;;29.87;53.62;94806.38;5072476;28;20433;-77
2023/06/27 06:44:27;;;;;;;10.63;7.77;;;;;;;29.79;51.86;94808.72;5072433;28;20451;-77
2023/06/27 06:46:55;;;;;;;9.13;7.40;;;;;;;29.74;51.86;94800.50;5071654;28;20477;-77
2023/06/27 06:49:22;;;;;;;9.23;8.23;;;;;;;29.68;50.96;94798.81;5072103;28;20449;-77
2023/06/27 06:51:49;;;;;;;18.10;8.03;;;;;;;29.68;50.97;94799.63;5072377;28;20453;-78
2023/06/27 06:54:16;;;;;;;10.60;7.70;;;;;;;29.84;50.98;94795.25;5072189;28;20448;-77
2023/06/27 06:56:42;;;;;;;8.20;7.13;;;;;;;29.95;50.30;94799.69;5072428;28;20496;-78
2023/06/27 06:59:09;;;;;;;10.33;7.30;;;;;;;29.98;50.87;94795.66;5072344;28;20461;-78
2023/06/27 07:01:36;;;;;;;10.00;7.40;;;;;;;30.16;50.70;94800.78;5072517;28;20487;-79
2023/06/27 07:04:04;;;;;;;10.00;7.33;;;;;;;30.36;50.33;94803.72;5072303;28;20995;-78
2023/06/27 07:06:31;;;;;;;8.47;7.50;;;;;;;30.28;50.01;94803.34;5072329;28;20452;-77
2023/06/27 07:08:58;;;;;;;11.63;6.90;;;;;;;30.34;50.27;94800.41;5036793;28;20452;-78
2023/06/27 07:11:25;;;;;;;10.67;8.10;;;;;;;30.37;51.22;94796.41;5072049;28;20461;-78
2023/06/27 07:13:52;;;;;;;9.57;8.57;;;;;;;30.35;50.43;94803.94;5072127;28;20448;-80
2023/06/27 07:16:18;;;;;;;10.17;9.07;;;;;;;29.56;50.72;94791.66;5020397;28;20906;-78
2023/06/27 07:18:45;;;;;;;15.80;7.23;;;;;;;29.24;51.66;94802.25;5072356;28;20475;-79
2023/06/27 07:21:13;;;;;;;11.97;6.77;;;;;;;28.76;52.62;94780.41;5036696;28;20441;-78
2023/06/27 07:23:40;;;;;;;9.17;7.50;;;;;;;28.57;52.50;94787.91;5072044;28;20452;-78
2023/06/27 07:26:07;;;;;;;8.40;7.53;;;;;;;28.62;53.47;94787.97;5072375;28;20464;-78
2023/06/27 07:28:34;;;;;;;10.57;7.43;;;;;;;28.67;53.85;94785.38;5071999;28;20437;-78
2023/06/27 07:31:00;;;;;;;11.70;7.87;;;;;;;28.78;54.70;94784.47;5020504;28;20452;-78
2023/06/27 07:33:27;;;;;;;16.03;7.10;;;;;;;29.06;54.12;94774.69;5072096;28;20441;-77
2023/06/27 07:35:54;;;;;;;12.33;8.73;;;;;;;29.34;52.38;94779.94;5071854;28;20974;-78
2023/06/27 07:38:23;;;;;;;7.63;6.77;;;;;;;29.34;51.80;94779.94;5072016;28;20683;-77
2023/06/27 07:40:50;;;;;;;9.30;8.40;;;;;;;29.36;51.27;94779.69;5071867;28;20535;-77
2023/06/27 07:43:17;;;;;;;15.00;7.70;;;;;;;29.40;52.23;94786.25;5072083;28;20452;-79
2023/06/27 07:45:44;;;;;;;9.53;7.40;;;;;;;29.53;52.48;94784.03;5071917;28;20821;-78
2023/06/27 07:48:11;;;;;;;13.40;7.80;;;;;;;29.70;51.90;94785.84;5072080;28;20445;-78
2023/06/27 07:50:37;;;;;;;12.67;8.17;;;;;;;29.76;51.63;94788.38;5031911;28;20513;-78
2023/06/27 07:53:04;;;;;;;8.57;7.67;;;;;;;29.66;52.40;94793.66;5091807;28;20450;-78
2023/06/27 07:55:34;;;;;;;8.53;7.73;;;;;;;29.83;52.63;94788.19;5092000;28;20537;-78
2023/06/27 07:58:01;;;;;;;8.03;7.23;;;;;;;30.15;51.74;94799.16;5091766;28;20576;-78
2023/06/27 08:00:27;;;;;;;11.47;7.67;;;;;;;30.19;50.96;94795.69;5095843;28;20443;-77
2023/06/27 08:02:54;;;;;;;9.10;8.20;;;;;;;30.34;50.82;94791.47;5095842;28;20451;-77
2023/06/27 08:05:21;;;;;;;10.80;6.67;;;;;;;30.25;49.90;94793.03;5095412;28;20440;-77
2023/06/27 08:07:48;;;;;;;13.20;7.50;;;;;;;30.20;48.77;94794.59;5096244;28;20442;-77
2023/06/27 08:10:14;;;;;;;7.63;6.50;;;;;;;30.27;47.80;94790.88;5095593;28;20448;-79
2023/06/27 08:12:43;;;;;;;8.53;7.73;;;;;;;30.14;48.93;94792.09;5056606;28;20444;-78
2023/06/27 08:15:10;;;;;;;12.23;7.90;;;;;;;30.28;50.22;94781.69;5076600;28;20456;-77
2023/06/27 08:17:37;;;;;;;8.17;7.37;;;;;;;29.91;50.85;94776.94;5040647;28;20488;-80
2023/06/27 08:20:05;;;;;;;10.73;8.47;;;;;;;29.93;50.80;94785.59;5024498;28;20497;-77
2023/06/27 08:22:32;;;;;;;9.27;6.67;;;;;;;29.87;50.30;94782.03;5041440;28;20820;-77
2023/06/27 08:24:59;;;;;;;9.87;7.47;;;;;;;29.88;52.02;94782.84;5075845;28;20985;-78
2023/06/27 08:27:26;;;;;;;10.80;7.70;;;;;;;29.96;50.90;94779.69;5075930;28;20462;-78
2023/06/27 08:29:54;;;;;;;16.20;7.60;;;;;;;29.92;50.82;94773.16;5075677;28;20473;-78
2023/06/27 08:32:20;;;;;;;8.50;7.60;;;;;;;29.92;51.08;94781.25;5040962;28;20805;-80
2023/06/27 08:34:47;;;;;;;11.53;6.70;;;;;;;29.70;50.68;94783.16;5075817;28;20436;-77
2023/06/27 08:37:14;;;;;;;8.00;6.90;;;;;;;29.71;49.98;94782.09;5075884;28;20484;-78
2023/06/27 08:39:41;;;;;;;8.30;6.50;;;;;;;29.81;49.98;94766.81;5024104;28;20440;-78
2023/06/27 08:42:08;;;;;;;7.00;6.30;;;;;;;29.67;47.93;94773.66;5075798;28;20527;-78
2023/06/27 08:44:35;;;;;;;9.90;6.83;;;;;;;29.85;48.94;94776.06;5075324;28;20449;-78
2023/06/27 08:47:06;;;;;;;12.80;7.17;;;;;;;29.85;48.12;94772.53;5075989;28;20444;-80
2023/06/27 08:49:35;;;;;;;7.63;6.93;;;;;;;30.02;48.99;94770.53;5039874;28;20452;-79
2023/06/27 08:52:03;;;;;;;7.50;5.90;;;;;;;29.92;47.99;94771.25;5075484;28;20779;-78
2023/06/27 08:54:35;;;;;;;6.97;6.20;;;;;;;29.97;47.93;94772.38;5074838;28;20476;-79
2023/06/27 08:57:04;;;;;;;9.10;6.47;;;;;;;29.91;48.90;94763.41;5074380;28;20484;-79
2023/06/27 08:59:35;;;;;;;7.80;6.93;;;;;;;29.99;49.48;94762.94;5074619;28;20448;-78
2023/06/27 09:02:05;;;;;;;9.87;6.30;;;;;;;30.10;48.61;94762.03;5074500;28;21002;-78
2023/06/27 09:04:34;;;;;;;7.10;6.20;;;;;;;30.23;49.34;94758.09;5074369;28;20456;-79
2023/06/27 09:07:01;;;;;;;8.93;7.93;;;;;;;30.01;49.41;94762.69;5074628;28;20444;-78
2023/06/27 09:09:30;;;;;;;8.67;6.27;;;;;;;29.95;48.95;94761.81;5073904;28;20816;-78
2023/06/27 09:12:00;;;;;;;7.77;6.90;;;;;;;30.01;48.93;94768.91;5073397;28;20528;-78
2023/06/27 09:14:27;;;;;;;6.70;6.10;;;;;;;30.09;48.17;94759.56;5039081;28;20441;-78
2023/06/27 09:16:54;;;;;;;7.63;6.80;;;;;;;29.79;48.39;94760.03;5073912;28;20481;-78
2023/06/27 09:19:23;;;;;;;7.80;6.90;;;;;;;29.50;48.50;94762.91;5073844;28;20476;-78
2023/06/27 09:21:50;;;;;;;6.60;6.00;;;;;;;28.90;50.50;94747.41;5074283;28;20448;-77
2023/06/27 09:24:22;;;;;;;6.90;6.20;;;;;;;28.96;49.87;94754.56;5074292;28;20444;-79
2023/06/27 09:26:49;;;;;;;7.00;6.40;;;;;;;28.88;50.92;94754.94;5074200;28;20441;-78
2023/06/27 09:29:16;;;;;;;9.33;6.67;;;;;;;29.03;49.47;94757.06;5073908;28;20999;-78
2023/06/27 09:31:44;;;;;;;9.07;6.87;;;;;;;29.06;50.48;94751.19;5073604;28;20441;-78
2023/06/27 09:34:11;;;;;;;10.70;6.20;;;;;;;29.19;48.66;94750.81;5073752;28;20934;-78
2023/06/27 09:36:40;;;;;;;8.27;6.30;;;;;;;29.34;48.75;94755.63;5074283;28;20441;-78
2023/06/27 09:39:08;;;;;;;7.73;6.87;;;;;;;29.47;50.05;94752.56;5074237;28;20471;-78
2023/06/27 09:41:45;;;;;;;6.53;5.93;;;;;;;29.68;50.43;94755.53;5074435;28;20948;-79
2023/06/27 09:44:14;;;;;;;7.63;5.80;;;;;;;29.78;49.93;94761.06;5074460;28;20452;-78
2023/06/27 09:46:42;;;;;;;7.07;6.13;;;;;;;29.87;48.47;94757.69;5074843;28;20472;-77
2023/06/27 09:49:09;;;;;;;7.03;6.33;;;;;;;29.73;46.33;94752.88;5074198;28;20832;-77
2023/06/27 09:51:37;;;;;;;6.90;5.87;;;;;;;29.60;47.76;94757.63;5074446;28;20846;-78
2023/06/27 09:54:06;;;;;;;13.13;5.87;;;;;;;29.36;45.65;94749.97;5074063;28;20448;-78
2023/06/27 09:56:34;;;;;;;5.73;5.23;;;;;;;29.05;47.64;94757.66;5074050;28;20444;-77
2023/06/27 09:59:08;;;;;;;5.83;5.33;;;;;;;29.02;46.66;94754.63;5073779;28;20445;-78
2023/06/27 10:01:37;;;;;;;5.93;5.37;;;;;;;29.06;46.56;94750.34;5073919;28;20448;-77
2023/06/27 10:04:03;;;;;;;9.27;4.77;;;;;;;29.06;47.12;94753.06;5074149;28;20449;-77
2023/06/27 10:06:31;;;;;;;4.90;4.50;;;;;;;29.09;46.92;94755.25;5073957;28;20445;-78
2023/06/27 10:08:58;;;;;;;8.23;6.40;;;;;;;29.19;46.46;94755.41;5073729;28;20444;-78
2023/06/27 10:11:27;;;;;;;6.20;5.60;;;;;;;29.32;46.17;94749.66;5073881;28;20898;-77
2023/06/27 10:13:54;;;;;;;5.40;5.00;;;;;;;29.42;47.32;94743.53;5038228;28;20441;-78
2023/06/27 10:16:22;;;;;;;6.13;5.63;;;;;;;29.52;46.41;94752.66;5073839;28;20993;-77
2023/06/27 10:18:52;;;;;;;6.30;5.70;;;;;;;29.55;46.84;94746.75;5073393;28;20496;-77
2023/06/27 10:21:20;;;;;;;9.33;6.03;;;;;;;29.55;46.97;94744.03;5037542;28;20441;-77
2023/06/27 10:23:50;;;;;;;7.10;6.40;;;;;;;29.49;44.87;94739.66;5072795;28;20448;-77
2023/06/27 10:26:19;;;;;;;5.80;5.30;;;;;;;29.42;44.75;94738.97;5020712;28;20429;-77
2023/06/27 10:28:50;;;;;;;6.20;5.60;;;;;;;29.25;45.64;94732.81;5072737;28;20480;-78
2023/06/27 10:31:39;;;;;;;7.67;6.03;;;;;;;28.94;45.94;94736.97;5037423;28;20441;-78
2023/06/27 10:34:06;;;;;;;7.90;5.90;;;;;;;28.78;48.08;94729.66;5072418;28;20457;-78
2023/06/27 10:36:51;;;;;;;6.73;5.73;;;;;;;28.55;47.52;94727.94;5072749;28;20448;-79
2023/06/27 10:39:28;;;;;;;9.73;5.90;;;;;;;28.41;46.73;94730.16;5072553;28;20445;-78
2023/06/27 10:42:03;;;;;;;7.30;5.57;;;;;;;28.22;49.42;94724.13;5072756;28;20451;-78
2023/06/27 10:44:32;;;;;;;7.73;5.27;;;;;;;28.16;48.85;94727.78;5072690;28;20517;-78
2023/06/27 10:47:29;;;;;;;6.67;6.07;;;;;;;28.13;50.35;94720.19;5072279;28;20483;-78
2023/06/27 10:50:02;;;;;;;10.30;5.37;;;;;;;28.30;48.03;94712.94;5072630;28;20819;-78
2023/06/27 10:52:29;;;;;;;7.27;5.17;;;;;;;28.53;50.70;94711.16;5072490;28;20468;-79
2023/06/27 10:55:21;;;;;;;5.63;5.13;;;;;;;28.57;49.67;94712.28;5072319;28;20444;-78
2023/06/27 10:57:50;;;;;;;8.10;4.83;;;;;;;28.76;47.72;94711.00;5072441;28;20534;-78
2023/06/27 11:00:24;;;;;;;6.20;5.20;;;;;;;28.93;46.90;94714.53;5072183;28;20452;-78
2023/06/27 11:02:54;;;;;;;6.17;5.53;;;;;;;29.11;45.90;94716.09;5021274;28;20444;-78
2023/06/27 11:05:36;;;;;;;6.63;6.10;;;;;;;29.05;44.44;94716.28;5072056;28;20449;-78
2023/06/27 11:08:04;;;;;;;5.93;5.37;;;;;;;29.18;44.31;94710.50;5072531;28;20502;-78
2023/06/27 11:10:31;;;;;;;10.10;6.37;;;;;;;29.32;43.40;94706.41;5072051;28;20456;-77
2023/06/27 11:13:14;;;;;;;6.83;5.33;;;;;;;29.32;42.98;94695.59;5072287;28;20448;-78
2023/06/27 11:15:44;;;;;;;7.87;5.83;;;;;;;29.41;43.58;94696.75;5072080;28;20506;-78
2023/06/27 11:18:14;;;;;;;6.77;5.27;;;;;;;29.42;44.19;94694.88;5071577;28;20500;-78
2023/06/27 11:20:41;;;;;;;6.60;5.20;;;;;;;29.45;42.39;94702.50;5072043;28;20445;-78
2023/06/27 11:23:08;;;;;;;7.40;6.70;;;;;;;29.62;44.38;94699.75;5072164;28;20467;-78
2023/06/27 11:25:39;;;;;;;12.00;5.70;;;;;;;29.75;43.94;94696.63;5072017;28;20672;-78
2023/06/27 11:28:05;;;;;;;8.20;5.87;;;;;;;29.72;43.95;94689.84;5071914;28;20785;-78
2023/06/27 11:30:33;;;;;;;5.83;5.33;;;;;;;29.45;43.45;94689.81;5072056;28;20452;-79
2023/06/27 11:33:03;;;;;;;7.67;5.27;;;;;;;29.25;42.93;94690.38;5072131;28;20448;-77
2023/06/27 11:35:30;;;;;;;8.10;6.43;;;;;;;29.03;42.28;94689.53;5076213;28;20498;-77